Time;durP1;ratioP1;P1;durP2;ratioP2;P2;SDS_P1;SDS_P2;PMS_P1;PMS_P2;Temp;Humidity;BMP_temperature;BMP_pressure;BME280_temperature;BME280_humidity;BME280_pressure;Samples;Min_cycle;Max_cycle;Signal;HPM_P1;HPM_P2
2023/10/27 00:00:37;;;;;;;8.05;4.63;;;;;;;-1.17;66.76;99183.63;5114106;28;20330;-60
2023/10/27 00:03:03;;;;;;;9.10;4.60;;;;;;;-1.06;65.88;99159.50;5115421;28;20023;-59
2023/10/27 00:05:30;;;;;;;7.65;4.00;;;;;;;-0.98;65.95;99182.78;5115475;28;20059;-59
2023/10/27 00:07:56;;;;;;;6.25;3.80;;;;;;;-0.95;66.12;99162.50;5114943;28;20028;-57
2023/10/27 00:10:22;;;;;;;8.40;4.50;;;;;;;-1.00;65.99;99180.25;5115009;28;20034;-59
2023/10/27 00:12:48;;;;;;;8.63;3.70;;;;;;;-1.11;66.46;99151.81;5115567;28;20027;-58
2023/10/27 00:15:13;;;;;;;6.43;4.05;;;;;;;-1.08;66.36;99166.59;5114929;28;20027;-57
2023/10/27 00:17:39;;;;;;;7.75;4.03;;;;;;;-1.01;66.01;99152.28;5113766;28;20027;-57
2023/10/27 00:20:05;;;;;;;5.45;3.70;;;;;;;-1.11;66.41;99140.44;5114742;28;20053;-60
2023/10/27 00:22:32;;;;;;;6.47;4.15;;;;;;;-1.08;66.98;99141.16;5114887;28;20039;-61
2023/10/27 00:24:59;;;;;;;6.10;3.83;;;;;;;-1.05;66.60;99134.94;5114636;28;20130;-57
2023/10/27 00:27:25;;;;;;;9.30;3.97;;;;;;;-1.12;67.52;99133.47;5114730;28;20065;-59
2023/10/27 00:29:51;;;;;;;5.82;4.10;;;;;;;-1.05;66.75;99113.91;5114570;28;20032;-59
2023/10/27 00:32:16;;;;;;;7.72;4.38;;;;;;;-1.16;66.68;99127.53;5114916;28;20157;-59
2023/10/27 00:34:42;;;;;;;5.75;3.92;;;;;;;-1.17;67.90;99125.81;5114486;28;20074;-57
2023/10/27 00:37:07;;;;;;;6.45;4.10;;;;;;;-1.19;67.05;99099.59;5114477;28;20028;-60
2023/10/27 00:39:33;;;;;;;10.10;4.30;;;;;;;-1.08;66.99;99121.94;5114612;28;20023;-60
2023/10/27 00:41:59;;;;;;;5.85;4.13;;;;;;;-1.13;67.74;99137.91;5114157;28;20542;-59
2023/10/27 00:44:24;;;;;;;6.38;4.03;;;;;;;-1.08;67.32;99119.31;5113632;28;20024;-55
2023/10/27 00:46:52;;;;;;;6.18;4.00;;;;;;;-1.14;67.33;99109.91;5114678;28;20023;-54
2023/10/27 00:49:18;;;;;;;5.97;3.72;;;;;;;-0.99;67.40;99124.16;5114314;28;20468;-56
2023/10/27 00:51:46;;;;;;;4.88;3.90;;;;;;;-1.02;67.40;99121.66;5114286;28;20024;-59
2023/10/27 00:54:12;;;;;;;5.72;3.55;;;;;;;-1.03;67.21;99119.97;5114361;28;20449;-59
2023/10/27 00:56:39;;;;;;;5.20;2.80;;;;;;;-0.79;66.04;99120.63;5114135;28;20093;-57
2023/10/27 00:59:06;;;;;;;7.28;4.22;;;;;;;-0.84;65.97;99112.09;5114022;28;20023;-59
2023/10/27 01:01:33;;;;;;;6.00;4.10;;;;;;;-1.02;66.76;99095.38;5113603;28;20030;-57
2023/10/27 01:03:58;;;;;;;8.32;3.90;;;;;;;-1.08;67.27;99103.56;5113179;28;20030;-56
2023/10/27 01:06:25;;;;;;;6.20;3.63;;;;;;;-1.04;67.09;99103.31;5114087;28;20020;-55
2023/10/27 01:08:51;;;;;;;5.93;4.00;;;;;;;-1.07;67.07;99100.84;5114300;28;20431;-55
2023/10/27 01:11:18;;;;;;;6.32;3.90;;;;;;;-0.99;66.83;99097.88;5114011;28;20454;-59
2023/10/27 01:13:43;;;;;;;5.43;2.95;;;;;;;-0.86;66.32;99090.28;5113541;28;20023;-58
2023/10/27 01:16:09;;;;;;;5.43;3.78;;;;;;;-0.89;66.45;99098.31;5113462;28;20032;-58
2023/10/27 01:18:34;;;;;;;4.28;2.83;;;;;;;-0.72;65.64;99094.91;5114129;28;20076;-57
2023/10/27 01:21:00;;;;;;;5.65;2.78;;;;;;;-0.63;65.73;99085.75;5112795;28;20080;-60
2023/10/27 01:23:25;;;;;;;5.80;4.05;;;;;;;-0.83;65.50;99087.53;5113690;28;20046;-60
2023/10/27 01:25:52;;;;;;;6.30;3.40;;;;;;;-0.96;66.46;99075.88;5112428;28;20146;-59
2023/10/27 01:28:17;;;;;;;6.82;4.00;;;;;;;-0.94;66.00;99074.03;5113838;28;20039;-58
2023/10/27 01:30:43;;;;;;;6.05;3.42;;;;;;;-0.84;65.98;99067.41;5113892;28;20023;-59
2023/10/27 01:33:08;;;;;;;4.97;3.33;;;;;;;-0.93;66.27;99076.56;5113223;28;20102;-56
2023/10/27 01:35:35;;;;;;;3.97;2.90;;;;;;;-0.83;65.67;99063.88;5113527;28;20031;-58
2023/10/27 01:38:01;;;;;;;8.20;4.32;;;;;;;-0.86;66.18;99077.16;5112701;28;20032;-55
2023/10/27 01:40:27;;;;;;;6.55;3.63;;;;;;;-0.97;66.37;99056.63;5113912;28;20027;-59
2023/10/27 01:42:52;;;;;;;5.28;3.67;;;;;;;-0.85;66.18;99059.59;5113475;28;20043;-57
2023/10/27 01:45:18;;;;;;;5.90;3.75;;;;;;;-0.93;66.40;99046.81;5112735;28;20422;-59
2023/10/27 01:47:43;;;;;;;5.55;3.80;;;;;;;-0.84;66.27;99051.66;5112624;28;20026;-59
2023/10/27 01:50:09;;;;;;;5.35;3.65;;;;;;;-0.80;65.97;99047.94;5112772;28;20081;-58
2023/10/27 01:52:34;;;;;;;5.95;2.90;;;;;;;-0.63;65.24;99041.06;5113165;28;20028;-60
2023/10/27 01:55:00;;;;;;;7.07;4.05;;;;;;;-0.80;65.69;99033.97;5112018;28;20106;-61
2023/10/27 01:57:25;;;;;;;5.25;2.47;;;;;;;-0.69;65.32;99041.34;5112677;28;20107;-58
2023/10/27 01:59:51;;;;;;;6.47;3.22;;;;;;;-0.76;65.30;99023.22;5114019;28;20035;-55
2023/10/27 02:02:17;;;;;;;7.43;3.92;;;;;;;-0.82;65.78;99034.03;5113242;28;20103;-59
2023/10/27 02:04:42;;;;;;;6.25;3.75;;;;;;;-0.95;66.50;99020.59;5112940;28;20055;-58
2023/10/27 02:07:08;;;;;;;3.50;2.92;;;;;;;-0.95;66.36;99019.78;5114671;28;20050;-59
2023/10/27 02:09:34;;;;;;;5.43;3.85;;;;;;;-0.85;66.14;99025.41;5116687;28;20035;-60
2023/10/27 02:11:59;;;;;;;4.15;3.60;;;;;;;-0.75;66.08;99016.19;5117335;28;20054;-59
2023/10/27 02:14:26;;;;;;;7.40;3.80;;;;;;;-0.82;66.04;99023.50;5117498;28;20031;-59
2023/10/27 02:16:51;;;;;;;5.32;3.45;;;;;;;-0.77;65.69;99005.75;5117403;28;20041;-59
2023/10/27 02:19:17;;;;;;;5.35;3.10;;;;;;;-0.75;65.84;99022.28;5117132;28;20106;-57
2023/10/27 02:21:43;;;;;;;4.47;3.20;;;;;;;-0.83;66.27;99023.59;5117389;28;20042;-57
2023/10/27 02:24:08;;;;;;;4.72;2.80;;;;;;;-0.81;66.55;99009.44;5116828;28;20048;-58
2023/10/27 02:26:35;;;;;;;6.32;3.33;;;;;;;-0.71;65.71;99007.25;5117413;28;20035;-58
2023/10/27 02:29:01;;;;;;;7.15;3.53;;;;;;;-0.71;65.85;98993.25;5116981;28;20040;-58
2023/10/27 02:31:27;;;;;;;4.10;3.22;;;;;;;-0.81;66.47;99000.72;5117249;28;20110;-62
2023/10/27 02:33:52;;;;;;;5.30;3.20;;;;;;;-0.72;66.15;98989.75;5117337;28;20143;-59
2023/10/27 02:36:18;;;;;;;5.03;3.65;;;;;;;-0.84;66.30;98983.31;5116591;28;20027;-60
2023/10/27 02:38:43;;;;;;;4.75;3.65;;;;;;;-0.77;66.18;98984.72;5116770;28;20061;-58
2023/10/27 02:41:10;;;;;;;4.60;3.53;;;;;;;-0.80;66.23;98976.97;5116835;28;20072;-61
2023/10/27 02:43:37;;;;;;;4.95;3.60;;;;;;;-0.90;66.91;98968.69;5099062;28;20031;-59
2023/10/27 02:46:04;;;;;;;4.80;3.35;;;;;;;-0.65;66.03;98967.50;5116540;28;20350;-58
2023/10/27 02:48:30;;;;;;;3.80;2.72;;;;;;;-0.67;66.16;98982.50;5117118;28;20097;-55
2023/10/27 02:50:55;;;;;;;6.60;3.60;;;;;;;-0.75;66.07;98974.97;5116789;27;20062;-58
2023/10/27 02:53:21;;;;;;;5.82;3.92;;;;;;;-0.73;65.85;98970.50;5116598;28;20091;-60
2023/10/27 02:55:46;;;;;;;5.43;3.78;;;;;;;-0.87;66.62;98952.75;5115644;28;20034;-60
2023/10/27 02:58:12;;;;;;;5.22;3.33;;;;;;;-0.92;65.60;98920.59;5115641;28;20028;-59
2023/10/27 03:00:44;;;;;;;6.53;2.60;;;;;;;-0.68;65.81;98964.19;5116542;28;20055;-60
2023/10/27 03:03:10;;;;;;;5.82;3.83;;;;;;;-0.77;66.31;98952.34;5116234;28;20122;-57
2023/10/27 03:05:36;;;;;;;5.35;3.50;;;;;;;-0.75;65.97;98940.81;5116732;28;20441;-59
2023/10/27 03:08:03;;;;;;;8.40;4.07;;;;;;;-0.75;66.20;98947.84;5116116;28;20028;-60
2023/10/27 03:10:28;;;;;;;5.85;4.03;;;;;;;-0.88;66.40;98935.28;5098330;28;20030;-52
2023/10/27 03:12:54;;;;;;;5.93;4.20;;;;;;;-0.87;66.96;98938.78;5116537;28;20023;-54
2023/10/27 03:15:20;;;;;;;5.32;3.45;;;;;;;-0.76;66.34;98954.03;5116274;28;20037;-52
2023/10/27 03:17:45;;;;;;;5.03;4.00;;;;;;;-0.87;67.35;98949.28;5115300;28;20103;-53
2023/10/27 03:20:12;;;;;;;8.00;4.03;;;;;;;-0.65;66.05;98945.63;5114933;28;20417;-53
2023/10/27 03:22:37;;;;;;;5.50;3.88;;;;;;;-0.63;66.01;98943.78;5116454;28;20096;-52
2023/10/27 03:25:03;;;;;;;7.88;3.78;;;;;;;-0.56;65.70;98957.50;5116179;28;20055;-55
2023/10/27 03:27:32;;;;;;;6.68;3.90;;;;;;;-0.65;66.37;98949.09;5116188;28;20404;-59
2023/10/27 03:29:58;;;;;;;6.03;4.40;;;;;;;-0.77;67.12;98955.81;5116050;28;20338;-61
2023/10/27 03:32:27;;;;;;;5.30;4.00;;;;;;;-0.74;67.03;98949.56;5115288;28;20087;-58
2023/10/27 03:34:53;;;;;;;2.65;2.00;;;;;;;-0.38;65.92;98971.50;5115063;28;20055;-55
2023/10/27 03:37:18;;;;;;;5.97;3.90;;;;;;;-0.50;65.78;98958.00;5115759;28;20040;-59
2023/10/27 03:39:44;;;;;;;5.10;3.80;;;;;;;-0.73;67.21;98967.88;5115528;28;20042;-59
2023/10/27 03:42:10;;;;;;;7.28;4.10;;;;;;;-0.69;66.56;98947.56;5115878;28;20038;-59
2023/10/27 03:44:36;;;;;;;6.63;3.60;;;;;;;-0.56;66.48;98945.19;5115974;28;20426;-56
2023/10/27 03:47:02;;;;;;;5.07;3.67;;;;;;;-0.52;66.51;98957.25;5115752;28;20089;-58
2023/10/27 03:49:27;;;;;;;5.90;3.50;;;;;;;-0.62;66.55;98940.22;5114567;28;20031;-57
2023/10/27 03:51:53;;;;;;;4.53;3.53;;;;;;;-0.78;67.06;98935.69;5114631;28;20034;-57
2023/10/27 03:54:19;;;;;;;4.85;3.60;;;;;;;-0.70;66.94;98934.50;5115687;28;20099;-59
2023/10/27 03:56:45;;;;;;;7.72;3.55;;;;;;;-0.62;66.50;98927.91;5115860;28;20167;-60
2023/10/27 03:59:10;;;;;;;9.23;3.58;;;;;;;-0.70;66.48;98902.97;5114564;28;20023;-59
2023/10/27 04:01:37;;;;;;;9.30;3.63;;;;;;;-0.70;67.46;98919.56;5115536;28;20350;-59
2023/10/27 04:04:03;;;;;;;6.45;4.05;;;;;;;-0.62;67.44;98924.44;5114418;28;20354;-57
2023/10/27 04:06:29;;;;;;;6.18;3.90;;;;;;;-0.56;66.46;98889.97;5115482;28;20024;-53
2023/10/27 04:08:55;;;;;;;5.82;3.63;;;;;;;-0.54;66.74;98896.00;5115146;27;20032;-52
2023/10/27 04:11:20;;;;;;;4.95;3.15;;;;;;;-0.47;66.09;98910.56;5115102;28;20027;-52
2023/10/27 04:13:46;;;;;;;5.60;3.80;;;;;;;-0.69;66.72;98887.09;5114891;28;20073;-57
2023/10/27 04:16:12;;;;;;;5.47;3.83;;;;;;;-0.68;67.35;98882.69;5114982;28;20043;-57
2023/10/27 04:18:38;;;;;;;4.93;3.42;;;;;;;-0.97;67.42;98850.78;5114873;28;20430;-57
2023/10/27 04:21:04;;;;;;;4.50;3.53;;;;;;;-0.74;67.62;98899.63;5114743;28;20366;-60
2023/10/27 04:23:31;;;;;;;4.95;3.03;;;;;;;-0.70;67.29;98895.91;5115047;28;20027;-59
2023/10/27 04:25:57;;;;;;;5.30;2.90;;;;;;;-0.63;67.35;98893.84;5114566;28;20035;-60
2023/10/27 04:28:22;;;;;;;6.13;3.30;;;;;;;-0.54;66.25;98880.22;5113726;28;20050;-54
2023/10/27 04:30:48;;;;;;;4.82;3.10;;;;;;;-0.52;66.03;98873.09;5114001;28;20024;-58
2023/10/27 04:33:15;;;;;;;5.43;3.03;;;;;;;-0.57;66.40;98875.13;5113354;28;20092;-59
2023/10/27 04:35:42;;;;;;;7.97;3.85;;;;;;;-0.67;67.07;98866.84;5114465;28;20421;-59
2023/10/27 04:38:07;;;;;;;5.20;3.17;;;;;;;-0.70;66.85;98879.31;5114021;28;20075;-58
2023/10/27 04:40:34;;;;;;;5.70;3.45;;;;;;;-0.50;66.45;98883.56;5095992;28;20499;-60
2023/10/27 04:43:00;;;;;;;4.53;3.45;;;;;;;-0.64;66.82;98871.09;5114950;28;20096;-60
2023/10/27 04:45:26;;;;;;;5.43;3.40;;;;;;;-0.51;66.64;98866.06;5114389;28;20032;-59
2023/10/27 04:47:53;;;;;;;6.68;4.15;;;;;;;-0.55;66.70;98862.75;5114364;28;20031;-56
2023/10/27 04:50:18;;;;;;;6.88;3.83;;;;;;;-0.61;66.54;98863.88;5114091;28;20028;-58
2023/10/27 04:52:45;;;;;;;5.45;3.95;;;;;;;-0.52;67.11;98869.63;5114555;28;20031;-58
2023/10/27 04:55:11;;;;;;;8.68;4.43;;;;;;;-0.60;67.43;98862.13;5113730;28;20335;-60
2023/10/27 04:57:37;;;;;;;5.55;4.22;;;;;;;-0.47;66.65;98868.47;5113828;28;20039;-58
2023/10/27 05:00:08;;;;;;;5.55;3.85;;;;;;;-0.60;66.64;98851.59;5114195;28;20023;-58
2023/10/27 05:02:34;;;;;;;11.23;4.25;;;;;;;-0.54;67.07;98863.59;5113172;28;20031;-59
2023/10/27 05:04:59;;;;;;;6.78;4.55;;;;;;;-0.41;66.24;98861.19;5113587;28;20427;-58
2023/10/27 05:07:25;;;;;;;6.53;4.43;;;;;;;-0.54;66.30;98845.19;5113459;28;20031;-59
2023/10/27 05:09:51;;;;;;;14.15;4.80;;;;;;;-0.59;66.83;98854.19;5114366;28;20039;-58
2023/10/27 05:12:17;;;;;;;5.13;4.15;;;;;;;-0.55;67.22;98854.84;5114147;28;20038;-58
2023/10/27 05:14:43;;;;;;;8.32;5.50;;;;;;;-0.46;66.82;98843.88;5113611;28;20084;-59
2023/10/27 05:17:09;;;;;;;8.27;4.95;;;;;;;-0.42;67.09;98830.56;5095691;28;20027;-60
2023/10/27 05:19:35;;;;;;;12.05;5.75;;;;;;;-0.64;66.73;98786.97;5114414;28;20027;-59
2023/10/27 05:22:05;;;;;;;4.97;3.20;;;;;;;-0.17;66.27;98846.78;5113526;28;20082;-59
2023/10/27 05:24:32;;;;;;;8.68;5.20;;;;;;;-0.24;65.94;98842.78;5113379;28;20052;-59
2023/10/27 05:26:58;;;;;;;7.50;5.38;;;;;;;-0.27;66.31;98818.41;5113740;28;20059;-59
2023/10/27 05:29:25;;;;;;;6.45;4.75;;;;;;;-0.31;66.72;98815.06;5113834;28;20350;-59
2023/10/27 05:31:51;;;;;;;6.13;4.20;;;;;;;-0.31;66.93;98817.69;5112874;28;20111;-59
2023/10/27 05:34:17;;;;;;;5.55;3.88;;;;;;;-0.19;66.31;98827.59;5113223;28;20024;-57
2023/10/27 05:36:42;;;;;;;7.18;4.93;;;;;;;-0.29;66.82;98818.47;5113545;28;20452;-52
2023/10/27 05:39:08;;;;;;;10.30;4.97;;;;;;;-0.27;67.50;98821.03;5113853;28;20497;-58
2023/10/27 05:41:34;;;;;;;5.68;4.68;;;;;;;-0.22;68.02;98814.63;5111986;28;20031;-55
2023/10/27 05:43:59;;;;;;;10.15;4.65;;;;;;;-0.07;67.15;98828.72;5113384;28;20067;-59
2023/10/27 05:46:25;;;;;;;7.65;5.22;;;;;;;-0.02;66.48;98808.28;5112198;28;20358;-56
2023/10/27 05:48:50;;;;;;;11.90;5.53;;;;;;;-0.06;67.15;98824.31;5113520;28;20062;-58
2023/10/27 05:51:16;;;;;;;6.50;4.78;;;;;;;-0.08;67.16;98811.25;5113668;28;20395;-58
2023/10/27 05:53:41;;;;;;;7.03;4.60;;;;;;;0.10;66.39;98819.06;5113065;28;20032;-59
2023/10/27 05:56:07;;;;;;;6.35;4.85;;;;;;;-0.02;66.75;98810.91;5113401;28;20094;-58
2023/10/27 05:58:35;;;;;;;6.03;4.50;;;;;;;0.03;66.87;98809.81;5113179;28;20031;-57
2023/10/27 06:01:01;;;;;;;7.53;5.30;;;;;;;-0.38;67.02;98734.81;5113405;28;20054;-60
2023/10/27 06:03:27;;;;;;;6.70;5.13;;;;;;;0.05;67.07;98802.69;5113026;28;20023;-58
2023/10/27 06:05:52;;;;;;;8.90;4.45;;;;;;;0.06;66.31;98792.09;5113067;28;20027;-60
2023/10/27 06:08:19;;;;;;;6.18;4.53;;;;;;;-0.06;67.10;98803.25;5113149;28;20077;-60
2023/10/27 06:10:44;;;;;;;8.88;5.55;;;;;;;-0.01;67.33;98793.31;5113029;28;20106;-61
2023/10/27 06:13:11;;;;;;;7.60;5.32;;;;;;;0.01;67.21;98783.59;5112109;28;20564;-62
2023/10/27 06:15:37;;;;;;;8.45;5.05;;;;;;;0.06;66.86;98765.78;5113066;28;20031;-59
2023/10/27 06:18:03;;;;;;;7.57;5.05;;;;;;;0.09;66.50;98760.34;5113128;28;20039;-60
2023/10/27 06:20:29;;;;;;;8.23;5.60;;;;;;;0.21;66.62;98773.75;5113105;28;20041;-60
2023/10/27 06:22:55;;;;;;;9.80;5.80;;;;;;;0.19;66.64;98767.72;5113014;28;20474;-59
2023/10/27 06:25:25;;;;;;;8.20;5.05;;;;;;;0.18;66.51;98766.00;5113014;28;20059;-59
2023/10/27 06:27:52;;;;;;;10.38;5.15;;;;;;;0.22;66.48;98770.16;5113041;28;20036;-61
2023/10/27 06:30:20;;;;;;;10.15;5.90;;;;;;;0.24;66.13;98765.66;5112996;28;20402;-57
2023/10/27 06:32:47;;;;;;;11.20;5.60;;;;;;;0.23;66.14;98766.59;5112000;28;20088;-62
2023/10/27 06:35:13;;;;;;;8.07;5.20;;;;;;;0.17;66.83;98756.41;5111712;28;20031;-57
2023/10/27 06:37:38;;;;;;;7.68;5.35;;;;;;;0.49;65.48;98767.81;5113126;28;20028;-61
2023/10/27 06:40:04;;;;;;;6.95;5.00;;;;;;;0.54;65.12;98768.38;5113087;28;20040;-60
2023/10/27 06:42:31;;;;;;;8.25;5.40;;;;;;;0.35;65.65;98746.66;5111844;28;20039;-57
2023/10/27 06:44:57;;;;;;;9.55;5.95;;;;;;;0.40;65.64;98758.63;5111821;28;20465;-53
2023/10/27 06:47:22;;;;;;;8.48;5.43;;;;;;;0.35;65.35;98755.41;5112070;28;20027;-60
2023/10/27 06:49:48;;;;;;;10.00;5.53;;;;;;;0.37;65.62;98748.28;5112879;28;20094;-60
2023/10/27 06:52:14;;;;;;;7.05;4.30;;;;;;;0.23;65.59;98727.97;5112692;28;20059;-60
2023/10/27 06:54:40;;;;;;;8.07;5.55;;;;;;;0.37;66.27;98756.16;5116722;28;20031;-60
2023/10/27 06:57:07;;;;;;;11.18;5.38;;;;;;;0.45;65.75;98742.56;5116528;28;20031;-55
2023/10/27 06:59:32;;;;;;;7.90;5.20;;;;;;;0.46;64.97;98752.19;5116488;28;20429;-58
2023/10/27 07:01:58;;;;;;;8.35;5.43;;;;;;;0.36;65.16;98746.56;5115177;28;20027;-59
2023/10/27 07:04:23;;;;;;;7.60;5.63;;;;;;;0.30;65.58;98740.78;5116428;28;20028;-59
2023/10/27 07:06:49;;;;;;;6.30;4.43;;;;;;;0.06;65.61;98702.59;5116477;28;20024;-59
2023/10/27 07:09:15;;;;;;;6.57;4.80;;;;;;;0.40;65.36;98758.63;5116364;28;20083;-55
2023/10/27 07:11:40;;;;;;;8.93;4.78;;;;;;;0.14;65.59;98712.72;5115613;28;20446;-58
2023/10/27 07:14:06;;;;;;;5.68;4.75;;;;;;;0.35;65.23;98750.16;5116562;28;20430;-60
2023/10/27 07:16:32;;;;;;;9.07;5.43;;;;;;;0.28;65.54;98740.91;5116581;28;20031;-59
2023/10/27 07:18:57;;;;;;;7.22;4.40;;;;;;;0.42;65.24;98762.03;5115064;28;20039;-60
2023/10/27 07:21:23;;;;;;;7.10;5.40;;;;;;;0.28;65.70;98743.53;5116049;28;20407;-60
2023/10/27 07:23:48;;;;;;;10.15;5.70;;;;;;;0.24;66.17;98741.97;5115931;28;20143;-60
2023/10/27 07:26:15;;;;;;;8.40;5.53;;;;;;;0.02;65.61;98687.91;5116225;28;20119;-60
2023/10/27 07:28:44;;;;;;;8.40;5.50;;;;;;;0.46;65.60;98740.78;5115827;28;20034;-56
2023/10/27 07:31:09;;;;;;;8.32;5.30;;;;;;;0.53;65.27;98742.16;5115987;28;20092;-59
2023/10/27 07:33:38;;;;;;;7.90;5.60;;;;;;;0.38;65.73;98731.53;5115883;28;20027;-60
2023/10/27 07:36:05;;;;;;;8.32;5.13;;;;;;;0.44;66.09;98735.63;5115848;28;20651;-59
2023/10/27 07:38:31;;;;;;;3.95;3.25;;;;;;;0.67;65.08;98729.03;5115572;28;20088;-62
2023/10/27 07:40:58;;;;;;;8.57;4.80;;;;;;;0.69;64.22;98727.16;5114549;28;20035;-59
2023/10/27 07:43:24;;;;;;;9.07;5.00;;;;;;;0.65;64.64;98751.97;5115763;28;20059;-57
2023/10/27 07:45:49;;;;;;;7.78;4.75;;;;;;;0.64;65.25;98731.84;5114753;28;20034;-60
2023/10/27 07:48:15;;;;;;;6.15;3.75;;;;;;;0.69;64.36;98748.22;5115250;28;20019;-65
2023/10/27 07:50:40;;;;;;;5.10;4.03;;;;;;;0.64;64.42;98747.66;5115615;28;20107;-61
2023/10/27 07:53:06;;;;;;;8.00;5.10;;;;;;;0.56;64.95;98737.53;5115542;28;20020;-60
2023/10/27 07:55:32;;;;;;;8.85;5.50;;;;;;;0.35;65.90;98712.41;5114753;28;20423;-60
2023/10/27 07:57:57;;;;;;;8.80;5.40;;;;;;;0.49;65.54;98736.19;5115219;28;20059;-57
2023/10/27 08:00:23;;;;;;;6.53;4.70;;;;;;;0.45;65.77;98728.53;5115230;28;20059;-58
2023/10/27 08:02:51;;;;;;;8.50;5.07;;;;;;;0.45;66.32;98750.47;5114207;28;20063;-61
2023/10/27 08:05:18;;;;;;;10.00;5.10;;;;;;;0.45;66.34;98723.28;5114089;28;20024;-58
2023/10/27 08:07:44;;;;;;;9.25;5.07;;;;;;;0.48;65.79;98736.28;5115297;27;20351;-57
2023/10/27 08:10:10;;;;;;;7.13;5.05;;;;;;;0.51;66.15;98729.06;5114789;28;20028;-58
2023/10/27 08:12:36;;;;;;;10.65;4.97;;;;;;;0.56;66.30;98729.63;5114922;28;20417;-57
2023/10/27 08:15:05;;;;;;;9.63;4.97;;;;;;;0.60;65.85;98732.94;5096704;28;20118;-61
2023/10/27 08:17:33;;;;;;;7.03;5.30;;;;;;;0.61;65.98;98734.66;5115245;28;20028;-61
2023/10/27 08:19:58;;;;;;;10.85;5.70;;;;;;;0.47;66.73;98732.81;5115066;28;20031;-60
2023/10/27 08:22:24;;;;;;;8.40;5.15;;;;;;;0.59;66.05;98727.75;5114969;28;20024;-60
2023/10/27 08:24:49;;;;;;;7.13;5.15;;;;;;;0.60;65.97;98740.84;5114658;28;20051;-61
2023/10/27 08:27:15;;;;;;;11.85;5.60;;;;;;;0.52;65.78;98720.22;5115228;28;20031;-59
2023/10/27 08:29:40;;;;;;;8.20;6.32;;;;;;;0.28;66.30;98661.91;5113840;28;20049;-62
2023/10/27 08:32:06;;;;;;;9.75;5.80;;;;;;;0.49;66.55;98719.56;5113724;28;20035;-59
2023/10/27 08:34:32;;;;;;;11.45;5.95;;;;;;;0.51;65.71;98697.44;5114968;28;20436;-60
2023/10/27 08:36:57;;;;;;;10.63;6.53;;;;;;;0.56;66.33;98720.91;5114395;28;20522;-60
2023/10/27 08:39:24;;;;;;;7.88;5.57;;;;;;;0.23;65.99;98656.03;5114363;28;20031;-59
2023/10/27 08:41:49;;;;;;;8.75;5.28;;;;;;;0.60;66.31;98703.97;5114702;28;20049;-57
2023/10/27 08:44:16;;;;;;;6.72;4.68;;;;;;;0.59;65.61;98682.97;5113868;28;20474;-57
2023/10/27 08:46:42;;;;;;;8.75;5.18;;;;;;;0.83;64.49;98694.72;5114377;28;20426;-61
2023/10/27 08:49:08;;;;;;;8.40;5.43;;;;;;;0.58;65.54;98684.78;5113299;28;20030;-58
2023/10/27 08:51:35;;;;;;;9.60;6.28;;;;;;;0.61;65.92;98703.03;5114601;28;20358;-60
2023/10/27 08:54:01;;;;;;;7.45;5.35;;;;;;;0.65;65.00;98682.66;5114347;28;20035;-61
2023/10/27 08:56:27;;;;;;;7.45;5.72;;;;;;;0.69;65.81;98699.97;5113916;28;20039;-60
2023/10/27 08:58:53;;;;;;;7.25;5.18;;;;;;;0.67;65.13;98692.13;5114244;28;20031;-60
2023/10/27 09:01:19;;;;;;;8.10;5.18;;;;;;;0.75;64.82;98682.97;5114646;27;20457;-60
2023/10/27 09:04:06;;;;;;;8.75;5.07;;;;;;;0.75;65.42;98688.22;5114246;28;20046;-59
2023/10/27 09:06:32;;;;;;;8.00;5.05;;;;;;;0.47;65.68;98666.09;5113816;28;20450;-62
2023/10/27 09:08:57;;;;;;;8.43;5.30;;;;;;;0.64;65.38;98671.25;5114251;28;20024;-59
2023/10/27 09:11:23;;;;;;;6.80;5.13;;;;;;;0.86;65.31;98680.53;5114229;28;20024;-59
2023/10/27 09:13:48;;;;;;;8.60;6.03;;;;;;;0.74;65.40;98686.53;5114177;28;20058;-59
2023/10/27 09:16:26;;;;;;;7.68;5.00;;;;;;;0.96;64.64;98697.47;5113691;28;20446;-61
2023/10/27 09:18:55;;;;;;;8.70;5.57;;;;;;;0.81;64.79;98690.50;5113126;28;20046;-57
2023/10/27 09:21:32;;;;;;;7.82;5.43;;;;;;;0.79;64.83;98698.47;5113054;28;20038;-60
2023/10/27 09:23:58;;;;;;;12.93;5.70;;;;;;;0.71;65.22;98692.81;5113941;28;20139;-60
2023/10/27 09:26:28;;;;;;;8.55;6.05;;;;;;;0.82;65.11;98681.66;5112806;28;20363;-60
2023/10/27 09:29:01;;;;;;;7.95;5.65;;;;;;;0.90;64.22;98670.66;5113929;28;20042;-60
2023/10/27 09:31:34;;;;;;;11.50;6.10;;;;;;;0.80;65.36;98678.25;5113924;28;20514;-58
2023/10/27 09:34:21;;;;;;;7.05;5.50;;;;;;;0.84;64.78;98693.81;5113605;28;20102;-58
2023/10/27 09:36:52;;;;;;;10.10;5.45;;;;;;;0.89;64.61;98682.16;5113877;28;20046;-60
2023/10/27 09:39:24;;;;;;;8.43;5.85;;;;;;;0.66;65.57;98661.47;5114020;28;20059;-62
2023/10/27 09:42:04;;;;;;;7.13;4.05;;;;;;;0.91;64.88;98667.91;5113891;28;20023;-60
2023/10/27 09:44:41;;;;;;;9.02;4.38;;;;;;;0.94;64.74;98667.72;5113625;28;20023;-60
2023/10/27 09:47:17;;;;;;;9.25;6.07;;;;;;;0.76;65.18;98669.69;5112604;28;20028;-61
2023/10/27 09:49:51;;;;;;;8.40;6.53;;;;;;;0.71;65.27;98648.88;5113495;28;20110;-60
2023/10/27 09:52:20;;;;;;;7.57;5.55;;;;;;;0.77;65.07;98644.19;5112630;28;20123;-61
2023/10/27 09:54:46;;;;;;;9.50;6.07;;;;;;;0.76;65.09;98679.38;5113461;28;20457;-60
2023/10/27 09:57:12;;;;;;;6.63;4.65;;;;;;;0.83;65.03;98655.19;5113118;28;20040;-59
2023/10/27 09:59:38;;;;;;;9.98;6.35;;;;;;;0.78;65.17;98635.34;5112132;28;20027;-58
2023/10/27 10:02:05;;;;;;;9.60;6.22;;;;;;;0.66;65.46;98637.75;5113312;28;20108;-58
2023/10/27 10:04:52;;;;;;;10.65;7.22;;;;;;;0.72;66.48;98641.81;5112214;28;20055;-61
2023/10/27 10:07:28;;;;;;;10.75;7.32;;;;;;;0.79;66.08;98644.94;5113404;28;20067;-59
2023/10/27 10:09:54;;;;;;;;;;;;;;;1.15;64.73;98659.47;5113598;28;20023;-58
2023/10/27 10:12:19;;;;;;;11.35;6.80;;;;;;;0.97;65.08;98650.91;5113507;28;20235;-59
2023/10/27 10:14:46;;;;;;;9.75;7.30;;;;;;;0.82;65.94;98642.97;5112252;28;20039;-57
2023/10/27 10:17:12;;;;;;;7.55;4.95;;;;;;;0.89;65.33;98643.44;5094987;28;20420;-56
2023/10/27 10:19:50;;;;;;;9.82;6.75;;;;;;;0.85;66.12;98636.69;5113184;28;20107;-61
2023/10/27 10:22:39;;;;;;;10.48;7.28;;;;;;;0.76;65.93;98635.44;5113385;28;20032;-60
2023/10/27 10:25:23;;;;;;;9.98;6.57;;;;;;;0.76;66.24;98622.25;5113070;28;20119;-53
2023/10/27 10:28:07;;;;;;;8.65;6.57;;;;;;;0.89;65.71;98621.53;5113906;28;20431;-58
2023/10/27 10:31:11;;;;;;;11.25;7.65;;;;;;;0.81;66.17;98609.66;5116310;28;20027;-61
2023/10/27 10:33:38;;;;;;;11.98;6.38;;;;;;;0.88;66.36;98625.94;5093340;28;20075;-59
2023/10/27 10:36:18;;;;;;;12.82;7.35;;;;;;;0.80;66.89;98628.19;5116903;28;20042;-62
2023/10/27 10:38:55;;;;;;;11.07;8.45;;;;;;;0.75;66.21;98599.47;5117163;28;20032;-58
2023/10/27 10:41:53;;;;;;;11.40;8.23;;;;;;;0.86;66.67;98609.38;5117135;28;20543;-61
2023/10/27 10:44:19;;;;;;;10.75;7.78;;;;;;;0.73;66.76;98592.63;5117088;28;20438;-59
2023/10/27 10:46:45;;;;;;;11.80;7.82;;;;;;;0.98;66.10;98600.75;5116927;28;20031;-59
2023/10/27 10:49:21;;;;;;;10.23;6.75;;;;;;;1.08;65.58;98622.09;5117010;28;20038;-57
2023/10/27 10:51:57;;;;;;;12.27;6.78;;;;;;;1.04;65.99;98614.50;5116374;28;20035;-60
2023/10/27 10:54:28;;;;;;;14.27;8.23;;;;;;;0.78;66.90;98582.66;5117105;28;20035;-59
2023/10/27 10:57:08;;;;;;;10.90;8.00;;;;;;;0.82;67.09;98592.06;5116703;28;20078;-59
2023/10/27 10:59:33;;;;;;;10.98;7.53;;;;;;;0.90;66.38;98597.72;5115864;28;20467;-61
2023/10/27 11:02:00;;;;;;;12.52;8.77;;;;;;;0.82;66.84;98585.00;5116297;28;20097;-59
2023/10/27 11:04:33;;;;;;;18.33;9.77;;;;;;;0.82;66.79;98586.78;5115884;28;20073;-61
2023/10/27 11:07:00;;;;;;;14.43;8.23;;;;;;;0.87;67.06;98578.63;5116332;28;20454;-58
2023/10/27 11:09:26;;;;;;;14.43;8.77;;;;;;;1.02;66.40;98585.56;5115411;28;20019;-59
2023/10/27 11:11:51;;;;;;;13.80;9.18;;;;;;;0.85;66.70;98583.97;5115525;28;20035;-61
2023/10/27 11:14:17;;;;;;;15.20;9.32;;;;;;;1.00;66.26;98564.59;5115428;28;20115;-59
2023/10/27 11:16:42;;;;;;;15.77;8.70;;;;;;;0.67;66.19;98520.06;5116396;28;20080;-61
2023/10/27 11:19:18;;;;;;;13.65;9.02;;;;;;;0.93;66.71;98562.44;5116169;28;20028;-59
2023/10/27 11:21:43;;;;;;;11.65;8.60;;;;;;;0.82;67.18;98565.72;5116002;28;20059;-60
2023/10/27 11:24:10;;;;;;;12.65;7.93;;;;;;;0.90;66.50;98566.09;5116036;28;20086;-57
2023/10/27 11:26:41;;;;;;;12.88;8.60;;;;;;;0.54;67.21;98512.91;5115360;28;20042;-59
2023/10/27 11:29:08;;;;;;;14.40;8.88;;;;;;;0.64;66.59;98513.19;5116058;28;20031;-59
2023/10/27 11:31:39;;;;;;;11.45;7.65;;;;;;;0.77;66.89;98544.91;5114949;28;20027;-58
2023/10/27 11:34:09;;;;;;;13.70;8.05;;;;;;;0.81;66.63;98564.03;5115716;28;20029;-59
2023/10/27 11:36:42;;;;;;;11.55;7.63;;;;;;;0.63;67.55;98527.31;5116021;28;20062;-61